Salt Lake City, Utah
Traffic Map
Current Weather Conditions
Salt Lake City, Utah
Broken Clouds
Broken Clouds
44°
Feels Like: 42°
Wind Chill: 42° Ceiling: 25000
Heat Index: 44° Visibility: 10mi
Dew Point: 32° Wind: 5mph
Humidity: 63% Direction: 200° (SSW)
Pressure: 30in Gusts: 0mph
Raw Report DataKSLC 191354Z 20004KT 10SM FEW150 SCT200 BKN250 07/00 A3000 RMK AO2 SLP141 T00670000 $
Traffic Incident Summary
Active as of:
Severity:
Category:
InformationThere was an issue retrieving the traffic information for this location. Please try a different location or try again shortly.
Advertisements